CheckWX is a tool to help pilots better visualize weather data.  It is not intended as a substitute for an official pre-flight weather briefing.

22:02:16 UTC

LEJR METAR
Jerez Airport
Jerez de la Forntera, Spain
Current

32 mins ago

LEJR 212130Z 10005KT 070V130 CAVOK 10/06 Q1028
Observed
Feb-21 @ 21:30 UTC
Wind
  • 100° at 5 KTS
Visibility
10,000+ meters
Flight Rules
VFR
Cloud Levels
  • Clear skies
Temperature
10°C / 50°F
Dewpoint
C / 43°F
Humidity
76%
Altimeter
30.35" Hg
Pressure
1027.92 hPa
Previous

1 hour ago

LEJR 212100Z 08004KT CAVOK 11/05 Q1028
Observed
Feb-21 @ 21:00 UTC
Wind
  • 080° at 4 KTS
Visibility
10,000+ meters
Flight Rules
VFR
Cloud Levels
  • Clear skies
Temperature
11°C / 52°F
Dewpoint
C / 41°F
Humidity
67%
Altimeter
30.35" Hg
Pressure
1027.92 hPa
Previous

2 hours ago

LEJR 212030Z VRB02KT CAVOK 11/06 Q1028
Observed
Feb-21 @ 20:30 UTC
Wind
  • Variable at 2 KTS
Visibility
10,000+ meters
Flight Rules
VFR
Cloud Levels
  • Clear skies
Temperature
11°C / 52°F
Dewpoint
C / 43°F
Humidity
72%
Altimeter
30.35" Hg
Pressure
1027.92 hPa